Rio Novo do Sul, Brazil
Current Conditions -  °F | °C
As of 8:00 AM on Thursday 23 Oct 2014 (Local Time) from SBVT Reporting Station
Broken Clouds Broken Clouds  
Wind Chill: 72°   Ceiling: 7000
Heat Index: 72°   Visibility: 6mi
Dew Point: 59°   Wind: 7mph
Humidity: 64%   Direction: 220°SW
Pressure: 30.15"   Gusts: NA
Location:  20.86°S, 40.94°W
Report Text: SBVT 231000Z 22006KT 9999 FEW015 SCT030 BKN070 22/15 Q1021
Loading
Personal Weather Stations






























Interactive Weather Map
Tropical Storm Tracking
New forecast layout! Learn more

10-Day Weather Forecast

Advertisements
Track Severe Weather on mobile